Time;durP1;ratioP1;P1;durP2;ratioP2;P2;SDS_P1;SDS_P2;PMS_P1;PMS_P2;Temp;Humidity;BMP_temperature;BMP_pressure;BME280_temperature;BME280_humidity;BME280_pressure;Samples;Min_cycle;Max_cycle;Signal;HPM_P1;HPM_P2
2022/09/07 00:00:51;;;;;;;;;2.33;2.33;;;;;21.56;79.55;100564.59;4891167;29;45743;-85
2022/09/07 00:03:18;;;;;;;;;4.33;4.00;;;;;21.60;79.88;100573.50;4891929;29;47250;-85
2022/09/07 00:09:05;;;;;;;;;2.33;2.00;;;;;21.44;82.23;100561.44;4892986;29;45354;-86
2022/09/07 00:11:31;;;;;;;;;3.00;3.00;;;;;21.50;83.75;100582.88;4894556;29;45281;-86
2022/09/07 00:13:56;;;;;;;;;1.67;1.67;;;;;21.42;83.77;100574.97;4891821;29;47746;-86
2022/09/07 00:16:27;;;;;;;;;4.67;3.67;;;;;21.40;83.96;100575.97;4891758;29;45408;-86
2022/09/07 00:18:55;;;;;;;;;3.67;3.67;;;;;21.44;84.73;100585.78;4899671;29;45436;-86
2022/09/07 00:21:20;;;;;;;;;3.50;3.50;;;;;21.47;84.71;100581.16;4909959;29;45407;-87
2022/09/07 00:23:48;;;;;;;;;3.00;3.00;;;;;21.41;86.24;100567.81;4893777;29;46868;-86
2022/09/07 00:26:17;;;;;;;;;2.00;2.00;;;;;21.48;86.09;100576.63;4893223;29;45300;-85
2022/09/07 00:28:43;;;;;;;;;3.00;3.00;;;;;21.47;86.22;100577.53;4911047;29;45363;-87
2022/09/07 00:31:11;;;;;;;;;3.67;3.67;;;;;21.56;85.49;100583.53;4910942;29;45337;-86
2022/09/07 00:33:37;;;;;;;;;4.00;3.00;;;;;21.48;86.06;100565.81;4894502;29;47533;-86
2022/09/07 00:36:03;;;;;;;;;3.00;3.00;;;;;21.53;84.73;100563.81;4894539;29;45188;-86
2022/09/07 00:38:29;;;;;;;;;2.00;2.00;;;;;21.57;83.81;100574.50;4894109;29;45303;-86
2022/09/07 00:40:54;;;;;;;;;2.25;1.50;;;;;21.57;83.32;100582.63;4895589;29;45206;-86
2022/09/07 00:43:44;;;;;;;;;3.00;3.00;;;;;21.50;82.26;100572.91;4910178;29;47034;-86
2022/09/07 00:46:22;;;;;;;;;1.00;1.00;;;;;21.50;81.83;100574.75;4892334;29;45333;-87
2022/09/07 00:48:47;;;;;;;;;1.67;1.67;;;;;21.55;80.97;100578.16;4893322;29;45498;-87
2022/09/07 00:51:18;;;;;;;;;1.00;1.00;;;;;21.44;80.36;100564.13;4892841;29;45437;-86
2022/09/07 00:53:52;;;;;;;;;2.00;2.00;;;;;21.54;80.34;100576.41;4893470;29;48136;-87
2022/09/07 00:56:19;;;;;;;;;3.00;2.25;;;;;21.42;79.76;100557.88;4910839;29;45324;-87
2022/09/07 00:58:45;;;;;;;;;2.33;2.33;;;;;21.46;80.06;100570.38;4893711;29;45314;-85
2022/09/07 01:01:12;;;;;;;;;3.00;2.00;;;;;21.49;79.81;100581.09;4893701;29;45533;-85
2022/09/07 01:03:51;;;;;;;;;2.00;2.00;;;;;21.42;79.96;100565.97;4893208;29;46705;-86
2022/09/07 01:06:20;;;;;;;;;3.67;3.00;;;;;21.43;80.10;100574.09;4893524;29;45480;-86
2022/09/07 01:08:48;;;;;;;;;2.33;2.33;;;;;21.38;80.25;100568.78;4893566;29;45501;-86
2022/09/07 01:11:16;;;;;;;;;2.00;2.00;;;;;21.40;80.36;100573.25;4892729;29;45476;-86
2022/09/07 01:13:44;;;;;;;;;3.00;2.00;;;;;21.33;80.75;100562.66;4910279;29;45440;-86
2022/09/07 01:16:36;;;;;;;;;2.00;2.00;;;;;21.32;80.80;100570.81;4893883;29;45724;-86
2022/09/07 01:19:14;;;;;;;;;3.00;3.00;;;;;21.29;81.05;100573.59;4893404;29;45423;-86
2022/09/07 01:22:21;;;;;;;;;3.00;3.00;;;;;21.23;82.25;100568.38;4907615;29;45007;-86
2022/09/07 01:24:52;;;;;;;;;2.00;2.00;;;;;21.15;81.97;100571.38;4850148;29;45770;-86
2022/09/07 01:27:29;;;;;;;;;1.00;1.00;;;;;21.11;82.30;100567.88;4829821;29;45429;-86
2022/09/07 01:30:07;;;;;;;;;3.00;3.00;;;;;21.05;82.23;100567.19;4852982;29;45422;-85
2022/09/07 01:32:53;;;;;;;;;3.00;2.00;;;;;21.01;82.39;100562.81;4839837;29;45656;-86
2022/09/07 01:35:39;;;;;;;;;2.00;2.00;;;;;20.96;82.98;100563.81;4854139;29;46985;-86
2022/09/07 01:38:20;;;;;;;;;2.00;1.33;;;;;20.91;82.71;100559.53;4838362;29;45523;-86
2022/09/07 01:40:45;;;;;;;;;1.50;1.00;;;;;20.91;82.51;100564.94;4838371;29;45221;-86
2022/09/07 01:43:32;;;;;;;;;4.33;2.67;;;;;20.82;83.27;100547.16;4838763;29;44775;-86
2022/09/07 01:46:02;;;;;;;;;2.00;2.00;;;;;20.84;83.69;100566.91;4837413;29;46450;-86
2022/09/07 01:48:27;;;;;;;;;2.00;2.00;;;;;20.78;83.45;100567.09;4836799;29;45526;-86
2022/09/07 01:51:06;;;;;;;;;2.00;2.00;;;;;20.77;83.97;100565.34;4854107;29;45427;-86
2022/09/07 01:53:41;;;;;;;;;3.25;2.00;;;;;20.68;84.68;100557.50;4839114;29;45439;-87
2022/09/07 01:56:12;;;;;;;;;2.00;2.00;;;;;20.71;84.37;100569.13;4878070;29;48118;-87
2022/09/07 01:58:59;;;;;;;;;1.00;1.00;;;;;20.71;84.10;100570.94;4910641;29;45429;-86
2022/09/07 02:01:31;;;;;;;;;2.67;2.67;;;;;20.68;84.61;100566.53;4893304;29;45739;-86
2022/09/07 02:04:04;;;;;;;;;3.50;1.00;;;;;20.66;85.06;100564.78;4910655;29;45456;-86
2022/09/07 02:09:55;;;;;;;;;2.00;2.00;;;;;20.50;85.54;100550.81;4872529;29;45530;-86
2022/09/07 02:12:39;;;;;;;;;1.67;1.67;;;;;20.48;85.72;100553.59;4870779;29;44971;-86
2022/09/07 02:15:17;;;;;;;;;2.25;2.00;;;;;20.45;86.45;100548.25;4854889;29;45855;-87
2022/09/07 02:17:49;;;;;;;;;1.50;1.50;;;;;20.40;86.09;100542.13;4871806;29;46628;-86
2022/09/07 02:20:24;;;;;;;;;3.00;2.75;;;;;20.43;86.61;100546.53;4869863;29;45458;-86
2022/09/07 02:22:56;;;;;;;;;3.50;2.00;;;;;20.39;86.54;100545.75;4854150;29;45479;-86
2022/09/07 02:25:25;;;;;;;;;2.25;2.25;;;;;20.38;87.35;100544.00;4870657;29;45743;-87
2022/09/07 02:27:58;;;;;;;;;2.00;2.00;;;;;20.31;86.87;100539.69;4853973;29;47757;-87
2022/09/07 02:30:24;;;;;;;;;2.00;2.00;;;;;20.31;87.16;100542.38;4869764;29;45330;-87
2022/09/07 02:32:51;;;;;;;;;2.00;2.00;;;;;20.15;87.11;100525.75;4870256;29;45378;-87
2022/09/07 02:35:17;;;;;;;;;4.00;3.00;;;;;20.14;87.12;100529.38;4871031;29;45407;-86
2022/09/07 02:37:44;;;;;;;;;1.00;1.00;;;;;20.19;87.81;100544.50;4869139;29;47595;-87
2022/09/07 02:40:10;;;;;;;;;2.00;2.00;;;;;20.21;87.64;100551.69;4870512;29;45228;-87
2022/09/07 02:42:37;;;;;;;;;3.25;3.25;;;;;20.02;88.29;100516.22;4868839;29;45312;-86
2022/09/07 02:45:06;;;;;;;;;2.00;2.00;;;;;20.18;88.27;100547.28;4855303;29;44881;-86
2022/09/07 02:47:57;;;;;;;;;3.00;2.00;;;;;20.12;87.70;100537.53;4871258;29;46803;-86
2022/09/07 02:50:38;;;;;;;;;1.50;1.50;;;;;20.09;88.12;100540.28;4853473;29;45361;-86
2022/09/07 02:53:32;;;;;;;;;1.00;1.00;;;;;20.13;88.15;100558.19;4854525;29;45807;-86
2022/09/07 02:56:17;;;;;;;;;2.75;2.75;;;;;20.11;88.07;100557.34;4855884;29;45878;-86
2022/09/07 02:58:51;;;;;;;;;1.75;1.50;;;;;20.07;88.41;100543.97;4870623;29;47717;-86
2022/09/07 03:01:49;;;;;;;;;2.00;2.00;;;;;19.99;88.37;100533.38;4856508;29;45316;-86
2022/09/07 03:04:29;;;;;;;;;4.00;3.00;;;;;20.03;88.51;100536.88;4855806;29;45669;-87
2022/09/07 03:07:09;;;;;;;;;1.00;1.00;;;;;19.98;88.65;100542.44;4855920;29;45526;-86
2022/09/07 03:09:42;;;;;;;;;2.00;2.00;;;;;19.99;89.86;100552.28;4872749;29;48352;-86
2022/09/07 03:12:08;;;;;;;;;2.50;1.75;;;;;19.94;89.38;100554.25;4875489;29;45361;-86
2022/09/07 03:14:38;;;;;;;;;2.00;2.00;;;;;19.92;89.90;100554.28;4858368;29;45407;-86
2022/09/07 03:17:04;;;;;;;;;2.00;2.00;;;;;19.74;89.85;100520.59;4874149;29;45359;-86
2022/09/07 03:19:29;;;;;;;;;1.67;1.33;;;;;19.83;90.46;100548.25;4866981;29;47689;-86
2022/09/07 03:21:54;;;;;;;;;2.00;2.00;;;;;19.78;90.19;100538.47;4892012;29;45303;-87
2022/09/07 03:24:20;;;;;;;;;5.67;2.00;;;;;19.74;91.02;100544.88;4905920;29;45573;-86
2022/09/07 03:26:50;;;;;;;;;2.00;2.00;;;;;19.76;91.28;100555.63;4892419;29;45388;-86
2022/09/07 03:29:16;;;;;;;;;1.50;1.50;;;;;19.69;91.56;100553.97;4875103;29;47138;-86
2022/09/07 03:31:42;;;;;;;;;2.25;2.25;;;;;19.64;91.56;100554.09;4890584;29;45326;-86
2022/09/07 03:34:07;;;;;;;;;4.00;4.00;;;;;19.66;92.04;100560.34;4909582;29;45361;-86
2022/09/07 03:36:34;;;;;;;;;3.75;2.00;;;;;19.61;91.87;100558.69;4897693;29;45345;-86
2022/09/07 03:38:59;;;;;;;;;2.33;1.00;;;;;19.57;91.70;100560.56;4896392;29;46786;-86
2022/09/07 03:41:26;;;;;;;;;5.00;3.00;;;;;19.52;91.83;100547.22;4896521;29;45492;-86
2022/09/07 03:43:52;;;;;;;;;2.00;2.00;;;;;19.58;91.90;100568.63;4896136;29;45400;-86
2022/09/07 03:46:18;;;;;;;;;2.50;2.50;;;;;19.54;91.78;100566.06;4894746;29;44818;-86
2022/09/07 03:48:48;;;;;;;;;1.25;1.25;;;;;19.54;92.73;100566.06;4894551;29;47477;-86
2022/09/07 03:51:15;;;;;;;;;2.00;2.00;;;;;19.46;92.68;100563.56;4910361;29;45375;-86
2022/09/07 03:53:44;;;;;;;;;2.33;2.33;;;;;19.41;93.08;100559.19;4893781;29;45390;-86
2022/09/07 03:56:12;;;;;;;;;3.67;2.67;;;;;19.38;93.68;100569.13;4909773;29;45503;-87
2022/09/07 03:58:38;;;;;;;;;4.00;4.00;;;;;19.41;94.07;100580.78;4895279;29;48373;-87
2022/09/07 04:01:08;;;;;;;;;5.00;3.00;;;;;19.38;94.41;100582.63;4894044;29;45387;-86
2022/09/07 04:03:34;;;;;;;;;4.00;1.67;;;;;19.29;94.68;100572.06;4894124;29;45399;-87
2022/09/07 04:06:00;;;;;;;;;4.00;3.00;;;;;19.32;94.27;100579.19;4895567;29;45512;-86
2022/09/07 04:08:28;;;;;;;;;3.00;3.00;;;;;19.32;94.38;100592.69;4895688;29;46928;-86
2022/09/07 04:11:00;;;;;;;;;2.25;2.25;;;;;19.31;94.73;100590.88;4912089;29;45376;-86
2022/09/07 04:13:27;;;;;;;;;2.67;2.00;;;;;19.25;94.61;100585.66;4896651;29;45513;-86
2022/09/07 04:15:53;;;;;;;;;6.33;6.33;;;;;19.23;95.28;100591.09;4913566;29;45427;-86
2022/09/07 04:18:20;;;;;;;;;4.00;3.67;;;;;19.25;97.35;100608.13;4911975;29;45363;-86
2022/09/07 04:20:45;;;;;;;;;1.33;0.67;;;;;19.15;96.96;100604.75;4876856;29;45564;-86
2022/09/07 04:23:11;;;;;;;;;3.75;2.00;;;;;19.08;97.36;100599.53;4875532;29;45293;-86
2022/09/07 04:25:36;;;;;;;;;2.50;2.50;;;;;19.11;97.22;100615.66;4877225;29;45467;-86
2022/09/07 04:28:03;;;;;;;;;1.25;0.50;;;;;19.10;97.06;100605.78;4875857;29;46922;-86
2022/09/07 04:30:28;;;;;;;;;2.00;2.00;;;;;19.08;97.88;100604.94;4894011;29;45387;-85
2022/09/07 04:32:54;;;;;;;;;1.33;1.33;;;;;19.11;98.00;100611.16;4876835;29;45477;-86
2022/09/07 04:35:19;;;;;;;;;5.25;2.50;;;;;19.12;97.70;100612.03;4892445;29;44828;-86
2022/09/07 04:37:45;;;;;;;;;2.00;1.00;;;;;19.07;98.98;100595.09;4876688;29;48261;-86
2022/09/07 04:40:11;;;;;;;;;4.75;3.00;;;;;19.07;98.45;100595.09;4893321;29;45375;-86
2022/09/07 04:42:36;;;;;;;;;2.00;2.00;;;;;19.09;98.00;100601.34;4877195;29;45622;-86
2022/09/07 04:45:03;;;;;;;;;4.00;0.67;;;;;19.09;98.89;100590.53;4875772;29;45809;-86
2022/09/07 04:47:29;;;;;;;;;1.50;1.50;;;;;19.08;97.93;100594.16;4875527;29;47168;-86
2022/09/07 04:49:55;;;;;;;;;1.50;1.50;;;;;19.13;98.94;100606.59;4876124;29;45095;-86
2022/09/07 04:52:21;;;;;;;;;2.67;2.67;;;;;19.13;99.14;100603.91;4875315;29;45474;-86
2022/09/07 04:54:48;;;;;;;;;2.25;2.25;;;;;19.14;99.31;100604.78;4876046;29;45549;-87
2022/09/07 04:57:14;;;;;;;;;0.50;0.00;;;;;19.12;99.01;100599.44;4875957;29;45426;-86
2022/09/07 04:59:39;;;;;;;;;2.67;2.67;;;;;19.14;100.00;100589.50;4874321;29;45545;-86
2022/09/07 05:02:06;;;;;;;;;2.75;2.75;;;;;19.10;99.12;100587.78;4876117;29;45385;-86
2022/09/07 05:04:34;;;;;;;;;5.00;3.33;;;;;19.19;98.97;100589.41;4892708;29;45464;-86
2022/09/07 05:06:59;;;;;;;;;3.50;3.50;;;;;19.21;99.18;100592.94;4876234;29;47325;-86
2022/09/07 05:09:25;;;;;;;;;2.00;2.00;;;;;19.29;98.78;100603.53;4894445;29;44757;-86
2022/09/07 05:11:50;;;;;;;;;2.00;2.00;;;;;19.23;98.63;100607.28;4895281;29;45500;-86
2022/09/07 05:14:16;;;;;;;;;2.75;2.75;;;;;19.24;99.03;100598.25;4896203;29;45457;-86
2022/09/07 05:16:41;;;;;;;;;3.00;2.00;;;;;19.31;99.07;100607.06;4883968;29;46674;-86
2022/09/07 05:19:11;;;;;;;;;2.00;2.00;;;;;19.32;100.00;100616.94;4911405;29;44722;-86
2022/09/07 05:21:37;;;;;;;;;2.75;2.75;;;;;19.28;99.57;100610.72;4909228;28;44746;-87
2022/09/07 05:24:03;;;;;;;;;4.33;3.00;;;;;19.32;100.00;100614.25;4908921;29;44779;-87
2022/09/07 05:26:31;;;;;;;;;5.33;2.00;;;;;19.27;99.91;100616.16;4908606;29;47123;-86
2022/09/07 05:29:01;;;;;;;;;3.00;3.00;;;;;19.35;99.36;100624.94;4925114;28;44729;-87
2022/09/07 05:31:27;;;;;;;;;4.67;4.00;;;;;19.38;99.44;100630.28;4922424;29;45392;-87
2022/09/07 05:33:56;;;;;;;;;3.67;3.67;;;;;19.43;99.73;100632.84;4906468;29;44861;-87
2022/09/07 05:36:24;;;;;;;;;2.00;2.00;;;;;19.44;99.48;100624.75;4898580;29;47203;-86
2022/09/07 05:38:50;;;;;;;;;4.33;4.33;;;;;19.45;99.72;100623.84;4897612;28;45753;-87
2022/09/07 05:41:18;;;;;;;;;3.33;3.00;;;;;19.48;99.34;100621.03;4898368;29;45275;-87
2022/09/07 05:43:44;;;;;;;;;4.33;4.33;;;;;19.48;100.00;100614.78;4914549;29;45386;-87
2022/09/07 05:46:10;;;;;;;;;2.33;2.00;;;;;19.35;100.00;100593.50;4914572;29;45244;-87
2022/09/07 05:48:36;;;;;;;;;3.00;3.00;;;;;19.53;99.85;100618.22;4914455;29;45602;-87
2022/09/07 05:51:02;;;;;;;;;3.67;2.67;;;;;19.43;100.00;100595.09;4912591;28;45507;-87
2022/09/07 05:53:28;;;;;;;;;4.00;3.00;;;;;19.59;99.92;100623.47;4909785;29;45438;-87
2022/09/07 05:55:57;;;;;;;;;5.00;4.00;;;;;19.60;100.00;100614.47;4911648;29;45372;-86
2022/09/07 05:58:23;;;;;;;;;4.00;3.33;;;;;19.50;99.83;100602.13;4895872;29;45333;-87
2022/09/07 06:00:48;;;;;;;;;1.33;1.33;;;;;19.64;99.79;100620.66;4910344;29;45393;-87
2022/09/07 06:03:14;;;;;;;;;4.00;4.00;;;;;19.63;99.73;100613.50;4912353;29;45441;-85
2022/09/07 06:05:39;;;;;;;;;2.67;2.67;;;;;19.61;99.33;100610.81;4911775;29;47127;-86
2022/09/07 06:08:04;;;;;;;;;5.00;5.00;;;;;19.65;99.92;100617.91;4910181;29;45778;-85
2022/09/07 06:10:34;;;;;;;;;9.67;7.00;;;;;19.69;100.00;100621.41;4913380;29;44781;-88
2022/09/07 06:13:00;;;;;;;;;6.33;6.00;;;;;19.65;99.95;100617.91;4913803;29;45647;-88
2022/09/07 06:15:26;;;;;;;;;8.67;8.67;;;;;19.69;100.00;100625.03;4912984;29;45575;-88
2022/09/07 06:17:52;;;;;;;;;12.00;10.00;;;;;19.72;99.48;100616.88;4896359;29;46093;-87
2022/09/07 06:20:18;;;;;;;;;7.67;6.00;;;;;19.71;99.36;100615.13;4884410;29;45348;-87
2022/09/07 06:22:44;;;;;;;;;6.00;6.00;;;;;19.78;99.19;100624.81;4893341;29;44984;-88
2022/09/07 06:25:09;;;;;;;;;6.67;4.00;;;;;19.82;98.90;100622.94;4892498;29;47119;-87
2022/09/07 06:27:35;;;;;;;;;4.00;3.00;;;;;19.84;98.61;100633.69;4893358;29;44766;-87
2022/09/07 06:30:00;;;;;;;;;3.00;3.00;;;;;19.89;98.18;100624.53;4876246;29;45451;-87
2022/09/07 06:32:26;;;;;;;;;2.33;2.33;;;;;19.94;97.80;100624.41;4875069;29;45475;-87
2022/09/07 06:34:53;;;;;;;;;4.00;4.00;;;;;19.94;97.78;100608.22;4892480;29;45383;-88
2022/09/07 06:37:18;;;;;;;;;3.00;3.00;;;;;20.14;97.11;100627.47;4891061;29;45307;-88
2022/09/07 06:39:44;;;;;;;;;2.00;2.00;;;;;20.33;96.94;100632.34;4890678;29;45417;-88
2022/09/07 06:42:09;;;;;;;;;3.67;3.67;;;;;20.34;96.00;100612.50;4875400;29;44867;-87
2022/09/07 06:44:35;;;;;;;;;5.00;3.00;;;;;20.44;95.40;100603.22;4892222;29;46164;-88
2022/09/07 06:47:01;;;;;;;;;4.33;3.67;;;;;20.62;94.35;100617.16;4891779;29;45028;-87
2022/09/07 06:49:27;;;;;;;;;3.00;3.00;;;;;20.81;93.49;100629.19;4892724;29;45852;-88
2022/09/07 06:51:52;;;;;;;;;2.67;1.67;;;;;20.88;92.67;100622.66;4877713;29;45532;-87
2022/09/07 06:54:20;;;;;;;;;2.33;2.33;;;;;21.00;92.25;100624.09;4875643;29;46582;-87
2022/09/07 07:00:08;;;;;;;;;6.00;4.33;;;;;21.25;90.68;100623.31;4899669;29;44721;-87
2022/09/07 07:02:41;;;;;;;;;3.67;3.67;;;;;21.17;90.74;100610.94;4878199;29;45248;-87
2022/09/07 07:05:07;;;;;;;;;3.00;3.00;;;;;21.23;90.48;100631.50;4877876;29;45397;-87
2022/09/07 07:07:33;;;;;;;;;4.00;4.00;;;;;21.21;90.31;100622.56;4878210;29;45254;-86
2022/09/07 07:09:58;;;;;;;;;4.00;4.00;;;;;21.37;90.45;100618.41;4879791;29;45391;-88
2022/09/07 07:12:24;;;;;;;;;5.25;5.25;;;;;21.49;89.87;100616.25;4877888;29;44881;-88
2022/09/07 07:14:50;;;;;;;;;4.33;4.33;;;;;21.49;88.82;100606.34;4876749;29;47180;-89
2022/09/07 07:17:16;;;;;;;;;3.00;3.00;;;;;21.51;88.91;100603.56;4878005;29;45438;-89
2022/09/07 07:19:41;;;;;;;;;4.33;3.33;;;;;21.34;88.56;100583.34;4877049;29;44846;-90
2022/09/07 07:22:10;;;;;;;;;4.00;3.00;;;;;21.45;88.30;100593.84;4876519;29;45441;-89
2022/09/07 07:24:36;;;;;;;;;10.00;4.67;;;;;21.44;88.19;100596.59;4874951;29;45385;-87
2022/09/07 07:33:10;;;;;;;;;6.00;5.33;;;;;21.29;88.55;100582.63;4760363;26;45498;-88
2022/09/07 07:38:50;;;;;;;;;;;;;;;;;;;;;
2022/09/07 07:42:42;;;;;;;;;3.25;3.25;;;;;21.31;88.26;100553.69;4858878;29;67399;-91
2022/09/07 07:52:36;;;;;;;;;;;;;;;;;;;;;
2022/09/07 07:55:22;;;;;;;;;;;;;;;;;;;;;
2022/09/07 07:58:11;;;;;;;;;5.25;3.50;;;;;21.99;87.79;100600.09;4784716;29;65176;-89
2022/09/07 08:03:43;;;;;;;;;3.50;3.00;;;;;22.32;86.27;100595.34;4834473;29;44840;-88
2022/09/07 08:06:20;;;;;;;;;3.25;3.00;;;;;22.47;85.31;100580.31;4819324;29;44991;-89
2022/09/07 08:09:04;;;;;;;;;;;;;;;;;;;;;
2022/09/07 08:11:42;;;;;;;;;5.00;2.00;;;;;22.43;84.47;100545.28;4818469;29;75320;-88
2022/09/07 08:14:57;;;;;;;;;3.33;3.33;;;;;22.91;83.73;100577.72;4819864;29;45389;-90
2022/09/07 08:18:25;;;;;;;;;6.50;3.75;;;;;22.97;82.84;100591.03;4823878;29;44749;-91
2022/09/07 08:21:49;;;;;;;;;;;;;;;;;;;;;
2022/09/07 08:23:41;;;;;;;;;3.67;2.67;;;;;23.05;81.88;100550.06;4764940;29;45111;-91
2022/09/07 08:26:18;;;;;;;;;5.25;4.75;;;;;23.36;80.72;100568.66;4751241;29;45525;-90
2022/09/07 08:28:45;;;;;;;;;4.33;3.33;;;;;23.37;80.61;100550.59;4735768;30;45285;-90
2022/09/07 08:35:10;;;;;;;;;5.67;5.00;;;;;23.81;78.91;100574.94;4749222;29;45544;-92
2022/09/07 08:52:15;;;;;;;;;3.75;3.75;;;;;24.20;74.25;100584.13;4930143;23;45334;-87
2022/09/07 08:56:15;;;;;;;;;;;;;;;;;;;;;
2022/09/07 09:05:20;;;;;;;;;4.00;4.00;;;;;24.44;72.10;100584.84;4814894;29;45477;-90
2022/09/07 09:08:03;;;;;;;;;4.75;4.75;;;;;24.50;71.12;100581.88;4795769;29;45388;-90
2022/09/07 09:11:45;;;;;;;;;;;;;;;;;;;;;
2022/09/07 10:54:11;;;;;;;;;4.25;4.25;;;;;26.40;56.91;100536.00;2723512;27;47741;-82
2022/09/07 10:57:11;;;;;;;;;2.75;2.25;;;;;26.41;54.15;100545.94;4837173;29;45325;-85
2022/09/07 11:00:42;;;;;;;;;;;;;;;;;;;;;
2022/09/07 11:03:39;;;;;;;;;2.00;2.00;;;;;26.26;55.78;100539.50;4798893;29;68039;-82
2022/09/07 11:06:19;;;;;;;;;4.25;3.25;;;;;26.19;56.31;100534.47;4837862;29;45592;-82
2022/09/07 11:09:06;;;;;;;;;3.00;2.75;;;;;26.14;56.27;100519.22;4843780;29;45423;-83
2022/09/07 11:19:56;;;;;;;;;2.75;2.00;;;;;26.20;55.04;100523.47;4788702;29;46117;-87
2022/09/07 11:22:43;;;;;;;;;2.50;2.00;;;;;26.07;56.41;100530.53;4752369;29;45649;-86
2022/09/07 11:26:22;;;;;;;;;2.50;2.50;;;;;25.78;56.50;100502.13;4755113;29;45508;-85
2022/09/07 11:29:40;;;;;;;;;3.50;3.50;;;;;25.79;57.02;100525.66;4745310;29;44850;-83
2022/09/07 11:32:11;;;;;;;;;5.00;3.75;;;;;25.54;57.51;100497.84;4703772;30;45729;-85
2022/09/07 11:34:43;;;;;;;;;6.50;4.00;;;;;25.41;57.45;100482.22;4708742;30;48194;-84
2022/09/07 11:37:24;;;;;;;;;3.50;3.50;;;;;25.50;57.88;100515.31;4685236;30;46513;-85
2022/09/07 11:47:30;;;;;;;;;4.50;2.00;;;;;24.88;59.52;100514.75;4715667;29;45367;-88
2022/09/07 11:50:41;;;;;;;;;;;;;;;;;;;;;
2022/09/07 11:53:32;;;;;;;;;;;;;;;;;;;;;
2022/09/07 11:56:31;;;;;;;;;;;;;;;;;;;;;
2022/09/07 11:59:08;;;;;;;;;3.75;3.00;;;;;24.71;62.77;100504.72;4710108;30;74935;-86
2022/09/07 12:02:38;;;;;;;;;;;;;;;;;;;;;
2022/09/07 12:05:40;;;;;;;;;4.25;2.50;;;;;24.47;63.08;100505.88;4759668;29;68110;-87
2022/09/07 12:08:49;;;;;;;;;;;;;;;;;;;;;
2022/09/07 12:12:04;;;;;;;;;4.00;2.25;;;;;24.23;62.78;100513.34;4771897;29;45756;-86
2022/09/07 12:23:00;;;;;;;;;;;;;;;;;;;;;
2022/09/07 12:26:17;;;;;;;;;;;;;;;;;;;;;
2022/09/07 12:38:20;;;;;;;;;4.00;2.00;;;;;23.71;69.00;100506.56;4955392;23;45633;-86
2022/09/07 12:41:25;;;;;;;;;2.75;2.75;;;;;23.68;69.27;100503.97;4891514;29;44830;-86
2022/09/07 12:47:53;;;;;;;;;3.25;3.25;;;;;23.54;69.64;100509.13;4890357;29;44817;-86
2022/09/07 12:50:48;;;;;;;;;3.75;2.00;;;;;23.34;70.82;100494.59;4897592;29;44988;-86
2022/09/07 12:53:55;;;;;;;;;2.75;2.25;;;;;23.23;68.67;100510.47;4891868;29;44782;-87
2022/09/07 12:57:05;;;;;;;;;2.00;2.00;;;;;23.12;68.87;100526.28;4899491;29;45369;-88
2022/09/07 12:59:50;;;;;;;;;2.00;2.00;;;;;22.92;72.95;100522.53;4901380;29;45121;-88
2022/09/07 13:02:56;;;;;;;;;2.00;2.00;;;;;22.75;72.88;100514.19;4896912;29;48046;-85
2022/09/07 13:09:17;;;;;;;;;3.00;3.00;;;;;22.63;75.39;100495.72;4879484;29;45507;-86
2022/09/07 13:11:59;;;;;;;;;4.50;4.50;;;;;22.56;77.26;100490.53;4894395;29;44927;-87
2022/09/07 13:14:27;;;;;;;;;6.00;3.00;;;;;22.54;79.31;100484.31;4891721;29;46293;-86
2022/09/07 13:17:40;;;;;;;;;6.75;4.75;;;;;22.50;78.69;100471.81;4892223;29;45731;-86
2022/09/07 13:20:11;;;;;;;;;4.00;2.50;;;;;22.45;79.19;100468.38;4890573;29;44845;-86
2022/09/07 13:26:00;;;;;;;;;6.50;3.50;;;;;22.34;82.84;100471.53;4889842;29;45266;-85
2022/09/07 13:29:12;;;;;;;;;3.25;3.00;;;;;22.15;84.02;100441.50;4858120;29;45302;-86
2022/09/07 13:32:09;;;;;;;;;5.50;4.00;;;;;22.15;88.48;100443.34;4858218;29;44873;-86
2022/09/07 13:35:05;;;;;;;;;4.00;1.75;;;;;21.99;89.58;100443.06;4888851;29;44784;-88
2022/09/07 13:37:46;;;;;;;;;3.00;3.00;;;;;21.89;88.71;100447.06;4879977;29;46408;-86
2022/09/07 13:40:18;;;;;;;;;5.00;3.33;;;;;21.73;88.16;100420.56;4871147;29;45417;-86
2022/09/07 13:42:46;;;;;;;;;2.00;2.00;;;;;21.84;90.27;100430.13;4858534;29;45769;-86
2022/09/07 13:45:29;;;;;;;;;3.67;3.67;;;;;21.83;91.99;100395.84;4875951;29;45716;-86
2022/09/07 13:48:00;;;;;;;;;1.25;1.25;;;;;21.87;92.21;100405.63;4877077;29;45446;-86
2022/09/07 13:50:37;;;;;;;;;3.67;3.67;;;;;21.60;90.53;100386.78;4876410;29;45511;-85
2022/09/07 13:53:29;;;;;;;;;2.33;2.33;;;;;21.90;90.02;100443.41;4876826;29;45421;-85
2022/09/07 13:56:07;;;;;;;;;4.33;2.33;;;;;22.14;89.91;100441.59;4876115;29;45788;-85
2022/09/07 13:58:38;;;;;;;;;4.00;3.00;;;;;22.22;89.61;100416.91;4875728;29;48229;-86
2022/09/07 14:01:17;;;;;;;;;3.00;3.00;;;;;22.42;89.58;100408.91;4859172;29;45394;-84
2022/09/07 14:04:05;;;;;;;;;2.50;2.00;;;;;22.43;87.05;100401.66;4874383;29;45388;-83
2022/09/07 14:06:33;;;;;;;;;2.50;1.25;;;;;22.60;85.01;100395.53;4867456;29;45386;-83
2022/09/07 14:09:25;;;;;;;;;2.00;2.00;;;;;22.81;83.94;100415.47;4869933;29;47777;-84
2022/09/07 14:12:11;;;;;;;;;;;;;;;;;;;;;
2022/09/07 14:14:37;;;;;;;;;6.33;3.00;;;;;22.94;84.36;100400.44;4876250;29;68042;-84
2022/09/07 14:17:07;;;;;;;;;1.25;1.25;;;;;23.19;82.67;100389.44;4859767;29;45574;-85
2022/09/07 14:19:42;;;;;;;;;2.00;2.00;;;;;23.41;81.06;100415.63;4866220;29;46829;-84
2022/09/07 14:22:47;;;;;;;;;2.25;2.25;;;;;23.58;80.72;100425.75;4860542;29;45361;-83
2022/09/07 14:25:21;;;;;;;;;3.00;3.00;;;;;23.84;79.17;100416.44;4858165;29;45409;-84
2022/09/07 14:27:48;;;;;;;;;3.25;3.00;;;;;23.95;79.12;100416.81;4857175;29;45342;-84
2022/09/07 14:30:31;;;;;;;;;6.00;3.75;;;;;23.98;78.40;100411.25;4857145;29;45461;-85
2022/09/07 14:33:16;;;;;;;;;3.00;3.00;;;;;24.01;78.47;100402.06;4858523;29;45422;-85
2022/09/07 14:35:42;;;;;;;;;3.00;3.00;;;;;23.99;77.75;100402.13;4857661;29;45493;-84
2022/09/07 14:38:31;;;;;;;;;3.00;3.00;;;;;23.93;77.22;100416.00;4877262;29;45508;-84
2022/09/07 14:41:03;;;;;;;;;2.00;2.00;;;;;23.87;77.49;100419.88;4876273;29;47364;-84
2022/09/07 14:43:54;;;;;;;;;4.00;4.00;;;;;23.79;77.66;100426.63;4860993;29;45511;-85
2022/09/07 14:47:14;;;;;;;;;2.25;2.25;;;;;23.67;78.60;100422.59;4876838;29;45306;-84
2022/09/07 14:49:40;;;;;;;;;4.33;4.00;;;;;23.51;79.51;100416.97;4876920;29;44930;-83
2022/09/07 14:52:20;;;;;;;;;3.00;3.00;;;;;23.31;79.64;100405.19;4859075;29;45761;-85
2022/09/07 14:54:51;;;;;;;;;2.50;2.50;;;;;23.33;79.47;100418.69;4860498;29;45396;-85
2022/09/07 14:57:17;;;;;;;;;3.00;3.00;;;;;23.22;80.70;100411.00;4869696;29;45454;-84
2022/09/07 14:59:52;;;;;;;;;4.00;2.00;;;;;23.09;81.32;100396.22;4861869;29;45554;-85
2022/09/07 15:02:22;;;;;;;;;3.00;3.00;;;;;23.18;82.04;100414.81;4862726;29;46875;-84
2022/09/07 15:05:17;;;;;;;;;2.75;2.75;;;;;23.26;82.25;100407.22;4859723;29;45509;-85
2022/09/07 15:08:02;;;;;;;;;2.75;2.75;;;;;23.32;83.45;100403.34;4852018;29;44832;-84
2022/09/07 15:10:34;;;;;;;;;4.00;4.00;;;;;23.20;83.73;100385.78;4875435;29;44904;-85
2022/09/07 15:13:00;;;;;;;;;4.75;4.75;;;;;23.18;84.13;100401.22;4860890;29;46952;-85
2022/09/07 15:15:40;;;;;;;;;4.50;4.50;;;;;23.16;84.83;100395.00;4877931;29;44870;-85
2022/09/07 15:18:50;;;;;;;;;7.33;4.33;;;;;23.16;85.86;100389.56;4861125;29;45486;-84
2022/09/07 15:21:16;;;;;;;;;2.00;2.00;;;;;22.97;84.54;100376.78;4859944;29;46045;-86
2022/09/07 15:24:00;;;;;;;;;1.50;1.50;;;;;22.84;85.19;100361.09;4876477;29;45483;-84
2022/09/07 15:26:40;;;;;;;;;3.25;2.25;;;;;23.00;84.21;100377.59;4875233;29;44851;-85
2022/09/07 15:29:08;;;;;;;;;2.25;2.25;;;;;22.76;84.15;100331.59;4878344;29;45382;-84
2022/09/07 15:31:37;;;;;;;;;2.75;2.00;;;;;22.95;83.67;100386.81;4880286;29;45439;-85
2022/09/07 15:34:18;;;;;;;;;3.00;3.00;;;;;22.96;82.64;100377.72;4862463;29;45428;-85
2022/09/07 15:36:50;;;;;;;;;2.00;2.00;;;;;22.95;83.11;100375.97;4864704;29;45321;-85
2022/09/07 15:39:28;;;;;;;;;2.75;2.00;;;;;22.91;82.97;100374.34;4897388;29;45510;-85
2022/09/07 15:41:54;;;;;;;;;1.75;1.50;;;;;22.83;82.79;100373.78;4896082;29;45022;-83
2022/09/07 15:44:20;;;;;;;;;3.00;1.75;;;;;22.74;83.50;100366.03;4896186;28;45425;-83
2022/09/07 15:46:49;;;;;;;;;3.00;3.00;;;;;22.61;83.13;100345.81;4894133;29;45616;-83